Curlew, Iowa
Current Conditions -  °F | °C
As of 2:55 PM on Thursday 27 Nov 2014 (Local Time) from KAXA Reporting Station
Few Clouds Few Clouds  
Wind Chill:   Ceiling: Unl
Heat Index:   Visibility: 10mi
Dew Point: -6°   Wind: 0mph
Humidity: 72%   Direction: NA
Pressure: 30.42"   Gusts: NA
Location:  42.98°N, 94.74°W
Report Text: KAXA 272055Z AUTO 00000KT 10SM FEW060 M17/M21 A3042 RMK AO2
Loading
Personal Weather Stations






























Interactive Weather Map New forecast layout! Learn more

10-Day Weather Forecast

Advertisements
Track Severe Weather on mobile